Skip Navigation LinksHome page > Weather > Current weather Skip Navigation Links

Current Weather

Pittsburgh International, Pittsburgh, Penn.

For information only: do not use for flight planning or navigation.
Latest weather
Observation time Monday, October 18, 2021 2:51 PM EDT
Local time Monday, October 18, 2021 3:13 PM EDT
Flight conditions Visual Meteorological Conditions
Winds
Wind direction Northwest (310°)
Wind speed 15 mph
Visibility 10 mi.
Sky condition
Ceiling unlimited
Cloud layer few clouds 4,500 ft.
Temperature 62°F
Dewpoint 33°F
Altimeter 30.04 in.Hg
Derived measurements
Relative humidity 34%
Density altitude 1368 ft.
Sea-level pressure 30.07 in.Hg
Remarks
Automated weather observing station with precipitation discriminator.
METAR KPIT 181851Z 31013KT 10SM FEW045 17/01 A3004 RMK AO2 SLP182 T01670006

Settings

Location code

InnerDrive.Weather 4.0.6770.0 Release CLR 4.0.30319.42000
Copyright ©2018 Inner Drive Technology. All rights reserved. Portions Copyright ©1986-2018 David Braverman.

Find weather

Site navigation


Skip Navigation Links

Place info

Page info

PayPal - The safer, easier way to pay online!

Return home.

Copyright ©2021 Inner Drive Technology. Purveyors of fine, hand-crafted computer software. Page printed 2021-10-18T19:13:50 UTC.